Terminal Aerodrome Forecast
Issued by NWS

Home | Current Version | Previous Version | Text Only | Print | Product List | Glossary On
Versions: 1 2 3 4 5 6 7 8 9 10 11 12 13 14 15 16
884
FTUS45 KTFX 241729
TAFHLN
TAF
KHLN 241729Z 2418/2518 VRB04KT P6SM SCT030 BKN100
      TEMPO 2418/2420 5SM HZ
     FM250600 VRB03KT P6SM FEW005 BKN080
     FM251000 VRB04KT 5SM HZ SCT010 SCT060=

USA.gov is the U.S. government's official web portal to all federal, state and local government web resources and services.